Time;durP1;ratioP1;P1;durP2;ratioP2;P2;SDS_P1;SDS_P2;PMS_P1;PMS_P2;Temp;Humidity;BMP_temperature;BMP_pressure;BME280_temperature;BME280_humidity;BME280_pressure;Samples;Min_cycle;Max_cycle;Signal;HPM_P1;HPM_P2
2021/05/08 00:02:11;;;;;;;3.90;1.80;;;;;;;9.31;100.00;101365.96;1855021;77;26321;-73
2021/05/08 00:04:41;;;;;;;5.23;2.10;;;;;;;9.21;100.00;101366.70;1855131;77;26726;-74
2021/05/08 00:07:14;;;;;;;4.10;1.83;;;;;;;9.22;100.00;101364.22;1854959;77;26212;-73
2021/05/08 00:09:45;;;;;;;3.33;1.83;;;;;;;9.18;100.00;101355.31;1855155;76;26733;-73
2021/05/08 00:12:14;;;;;;;3.50;1.93;;;;;;;9.17;100.00;101352.25;1854937;77;26340;-72
2021/05/08 00:14:44;;;;;;;5.73;2.20;;;;;;;9.17;100.00;101350.86;1855070;77;26581;-72
2021/05/08 00:17:14;;;;;;;3.43;1.90;;;;;;;9.39;100.00;101341.91;1855040;77;26197;-71
2021/05/08 00:19:44;;;;;;;3.67;1.60;;;;;;;9.43;100.00;101342.50;1855042;77;26640;-72
2021/05/08 00:22:14;;;;;;;3.37;1.30;;;;;;;9.34;100.00;101332.16;1854980;77;26197;-71
2021/05/08 00:24:44;;;;;;;2.83;1.40;;;;;;;9.50;100.00;101325.06;1855066;77;26243;-72
2021/05/08 00:27:13;;;;;;;2.73;1.57;;;;;;;9.41;100.00;101330.02;1855058;77;26321;-72
2021/05/08 00:29:43;;;;;;;2.53;1.40;;;;;;;9.59;100.00;101313.77;1855112;77;26765;-72
2021/05/08 00:32:13;;;;;;;1.93;1.50;;;;;;;9.42;100.00;101313.64;1855367;77;26248;-72
2021/05/08 00:34:43;;;;;;;3.83;1.63;;;;;;;9.44;100.00;101308.67;1855000;77;26247;-72
2021/05/08 00:37:13;;;;;;;5.03;1.70;;;;;;;9.41;100.00;101305.06;1855167;77;26722;-72
2021/05/08 00:39:42;;;;;;;3.57;1.60;;;;;;;9.45;100.00;101299.27;1855090;77;26204;-72
2021/05/08 00:42:13;;;;;;;3.43;1.77;;;;;;;9.45;100.00;101296.48;1855122;77;26287;-72
2021/05/08 00:44:43;;;;;;;3.77;2.00;;;;;;;9.52;100.00;101292.92;1854989;77;26192;-72
2021/05/08 00:47:13;;;;;;;4.87;1.80;;;;;;;9.56;100.00;101288.52;1855172;77;26302;-72
2021/05/08 00:49:45;;;;;;;4.20;2.00;;;;;;;9.42;100.00;101290.07;1855269;77;26233;-71
2021/05/08 00:52:16;;;;;;;3.10;2.00;;;;;;;9.61;100.00;101285.77;1855059;77;26667;-72
2021/05/08 00:54:47;;;;;;;3.23;1.80;;;;;;;9.63;100.00;101283.55;1855128;77;26282;-72
2021/05/08 00:57:16;;;;;;;3.57;2.10;;;;;;;9.61;100.00;101276.06;1855409;77;26709;-72
2021/05/08 00:59:46;;;;;;;5.07;2.03;;;;;;;9.54;100.00;101271.32;1855192;77;26266;-72
2021/05/08 01:02:16;;;;;;;3.07;1.63;;;;;;;9.60;100.00;101265.52;1855312;77;26321;-72
2021/05/08 01:04:46;;;;;;;2.43;1.80;;;;;;;9.62;100.00;101259.72;1855063;77;26271;-72
2021/05/08 01:07:16;;;;;;;4.97;2.00;;;;;;;9.59;100.00;101254.13;1855261;77;26289;-71
2021/05/08 01:09:46;;;;;;;5.03;1.93;;;;;;;9.67;100.00;101245.84;1855067;76;26752;-72
2021/05/08 01:12:17;;;;;;;2.50;1.80;;;;;;;9.66;100.00;101243.36;1855141;77;26181;-73
2021/05/08 01:14:47;;;;;;;3.63;1.93;;;;;;;9.54;100.00;101233.87;1855037;77;26732;-72
2021/05/08 01:17:17;;;;;;;4.27;1.90;;;;;;;9.55;100.00;101235.53;1855085;77;26275;-71
2021/05/08 01:19:47;;;;;;;3.87;1.80;;;;;;;9.53;100.00;101234.43;1855222;77;26197;-72
2021/05/08 01:22:16;;;;;;;2.80;1.50;;;;;;;9.65;100.00;101225.88;1855388;77;26624;-71
2021/05/08 01:24:46;;;;;;;2.77;1.47;;;;;;;9.71;100.00;101213.72;1855119;77;26283;-72
2021/05/08 01:27:16;;;;;;;2.50;1.47;;;;;;;9.70;100.00;101209.81;1855123;77;26647;-71
2021/05/08 01:29:46;;;;;;;3.80;1.63;;;;;;;9.59;100.00;101195.05;1855067;77;26670;-71
2021/05/08 01:32:16;;;;;;;3.97;1.80;;;;;;;9.68;100.00;101198.14;1855035;77;26213;-72
2021/05/08 01:34:46;;;;;;;2.13;1.40;;;;;;;9.62;100.00;101189.54;1855004;77;26309;-72
2021/05/08 01:37:15;;;;;;;3.13;1.50;;;;;;;9.65;100.00;101188.44;1855105;77;26279;-71
2021/05/08 01:39:45;;;;;;;3.37;1.23;;;;;;;9.76;100.00;101177.66;1855135;77;26698;-72
2021/05/08 01:42:15;;;;;;;2.93;1.40;;;;;;;9.62;100.00;101174.28;1855108;77;26197;-73
2021/05/08 01:44:45;;;;;;;6.50;2.10;;;;;;;9.58;100.00;101162.91;1855111;77;26704;-72
2021/05/08 01:47:15;;;;;;;2.63;1.37;;;;;;;9.67;100.00;101157.09;1855113;77;26270;-72
2021/05/08 01:49:45;;;;;;;2.77;1.27;;;;;;;9.68;100.00;101150.44;1855031;77;26604;-72
2021/05/08 01:52:15;;;;;;;3.70;1.30;;;;;;;9.66;100.00;101148.52;1855133;77;26755;-72
2021/05/08 01:54:44;;;;;;;2.50;1.47;;;;;;;9.65;100.00;101141.84;1855062;77;26200;-72
2021/05/08 01:57:14;;;;;;;3.43;1.30;;;;;;;9.76;100.00;101135.20;1855113;77;26176;-72
2021/05/08 01:59:44;;;;;;;3.13;1.17;;;;;;;9.70;100.00;101132.99;1854998;77;26193;-72
2021/05/08 02:02:14;;;;;;;2.80;1.27;;;;;;;9.76;100.00;101129.11;1854995;77;26295;-72
2021/05/08 02:04:43;;;;;;;3.00;1.20;;;;;;;9.87;100.00;101125.27;1855095;77;26290;-72
2021/05/08 02:07:13;;;;;;;2.97;1.30;;;;;;;9.84;100.00;101122.22;1855217;77;26674;-72
2021/05/08 02:09:43;;;;;;;2.20;1.13;;;;;;;9.94;100.00;101113.89;1855090;77;26233;-73
2021/05/08 02:12:13;;;;;;;1.50;1.10;;;;;;;9.92;100.00;101106.41;1855111;77;26244;-72
2021/05/08 02:14:43;;;;;;;4.70;1.37;;;;;;;9.83;100.00;101100.57;1854931;77;26282;-72
2021/05/08 02:17:12;;;;;;;3.97;1.20;;;;;;;9.91;100.00;101106.12;1855101;77;26193;-72
2021/05/08 02:19:42;;;;;;;3.07;1.30;;;;;;;9.77;100.00;101107.20;1855157;77;26198;-72
2021/05/08 02:22:12;;;;;;;2.07;1.00;;;;;;;9.84;100.00;101092.50;1855159;77;26270;-72
2021/05/08 02:24:42;;;;;;;3.23;1.20;;;;;;;9.94;100.00;101091.69;1855110;77;26189;-72
2021/05/08 02:27:12;;;;;;;1.87;1.30;;;;;;;9.84;100.00;101089.73;1855143;77;26189;-72
2021/05/08 02:29:41;;;;;;;1.53;1.30;;;;;;;9.85;100.00;101085.85;1855046;77;26267;-72
2021/05/08 02:32:11;;;;;;;2.93;1.27;;;;;;;9.89;100.00;101091.68;1855071;77;26270;-72
2021/05/08 02:34:41;;;;;;;2.50;1.17;;;;;;;9.85;100.00;101082.23;1855028;77;26304;-72
2021/05/08 02:37:11;;;;;;;2.17;1.93;;;;;;;9.76;100.00;101076.95;1855092;77;26675;-73
2021/05/08 02:39:40;;;;;;;4.00;1.30;;;;;;;9.46;100.00;101074.93;1855092;77;26656;-72
2021/05/08 02:42:10;;;;;;;3.17;1.67;;;;;;;9.36;100.00;101072.14;1855160;77;26286;-72
2021/05/08 02:44:40;;;;;;;3.10;1.30;;;;;;;9.33;100.00;101061.58;1855128;77;26696;-72
2021/05/08 02:47:18;;;;;;;2.33;1.20;;;;;;;9.44;100.00;101069.67;1855129;77;26185;-72
2021/05/08 02:49:49;;;;;;;2.37;1.53;;;;;;;9.44;100.00;101063.30;1855049;77;26267;-72
2021/05/08 02:52:19;;;;;;;2.33;1.23;;;;;;;9.38;100.00;101059.66;1855082;77;26200;-75
2021/05/08 02:54:50;;;;;;;3.63;1.70;;;;;;;9.25;100.00;101054.63;1855118;77;26204;-75
2021/05/08 02:57:19;;;;;;;5.77;1.40;;;;;;;8.94;100.00;101046.73;1854999;77;26204;-73
2021/05/08 02:59:49;;;;;;;3.50;2.00;;;;;;;9.13;100.00;101052.64;1855161;77;26281;-73
2021/05/08 03:02:19;;;;;;;3.53;2.27;;;;;;;8.98;100.00;101043.73;1854927;76;26306;-73
2021/05/08 03:04:49;;;;;;;3.07;1.50;;;;;;;8.98;100.00;101050.66;1854981;77;26247;-72
2021/05/08 03:07:19;;;;;;;4.53;1.60;;;;;;;8.90;100.00;101044.80;1854971;77;26193;-72
2021/05/08 03:09:48;;;;;;;3.37;1.70;;;;;;;8.68;100.00;101042.18;1855051;77;26193;-73
2021/05/08 03:12:18;;;;;;;4.23;1.93;;;;;;;8.75;100.00;101032.23;1854989;77;26248;-74
2021/05/08 03:14:48;;;;;;;3.83;1.60;;;;;;;8.70;100.00;101028.88;1855096;77;26185;-73
2021/05/08 03:17:18;;;;;;;3.43;1.60;;;;;;;8.48;100.00;101015.19;1855135;77;26356;-72
2021/05/08 03:19:48;;;;;;;3.57;1.90;;;;;;;8.47;100.00;101017.66;1854920;77;26673;-72
2021/05/08 03:22:34;;;;;;;5.17;2.10;;;;;;;8.35;100.00;101009.28;1798911;80;33807;-72
2021/05/08 03:25:05;;;;;;;5.30;2.10;;;;;;;8.41;100.00;100997.98;1799300;79;26330;-73
2021/05/08 03:27:35;;;;;;;5.33;2.80;;;;;;;8.33;100.00;100986.04;1799312;79;26268;-73
2021/05/08 03:30:06;;;;;;;2.70;1.80;;;;;;;8.33;100.00;100979.67;1799369;79;26393;-72
2021/05/08 03:32:39;;;;;;;5.67;2.30;;;;;;;8.26;100.00;100973.52;1799319;79;26232;-72
2021/05/08 03:35:10;;;;;;;3.47;2.53;;;;;;;8.17;100.00;100972.60;1799290;79;26228;-72
2021/05/08 03:37:40;;;;;;;4.83;2.20;;;;;;;8.32;100.00;100956.69;1799305;79;26311;-73
2021/05/08 03:40:12;;;;;;;5.37;3.10;;;;;;;8.30;100.00;100957.49;1799353;79;26236;-72
2021/05/08 03:42:42;;;;;;;4.80;2.33;;;;;;;8.22;100.00;100944.13;1799321;79;26657;-73
2021/05/08 03:45:14;;;;;;;6.27;2.40;;;;;;;8.10;100.00;100944.34;1799316;79;26240;-73
2021/05/08 03:47:43;;;;;;;5.57;2.67;;;;;;;8.15;100.00;100939.39;1799304;79;26726;-73
2021/05/08 03:50:14;;;;;;;6.13;2.53;;;;;;;8.27;100.00;100926.73;1799525;79;26307;-73
2021/05/08 03:52:43;;;;;;;3.37;2.47;;;;;;;8.35;100.00;100924.31;1800334;77;26225;-73
2021/05/08 03:55:14;;;;;;;5.60;2.80;;;;;;;8.35;100.00;100918.78;1855170;77;26200;-73
2021/05/08 03:57:44;;;;;;;7.63;3.00;;;;;;;8.40;100.00;100920.75;1854982;77;26204;-72
2021/05/08 04:00:16;;;;;;;6.57;2.80;;;;;;;8.26;100.00;100919.55;1840215;77;932920;-73
2021/05/08 04:02:46;;;;;;;7.17;3.30;;;;;;;8.36;100.00;100911.31;1787076;80;26800;-72
2021/05/08 04:05:16;;;;;;;6.77;2.80;;;;;;;8.29;100.00;100894.10;1787137;80;26211;-73
2021/05/08 04:07:46;;;;;;;5.60;2.87;;;;;;;8.28;100.00;100897.41;1787079;80;26285;-73
2021/05/08 04:10:17;;;;;;;5.77;3.20;;;;;;;8.31;100.00;100888.59;1787114;80;26670;-73
2021/05/08 04:12:46;;;;;;;3.30;2.77;;;;;;;8.30;100.00;100881.97;1787101;76;26352;-73
2021/05/08 04:15:16;;;;;;;5.40;3.00;;;;;;;8.18;100.00;100886.28;1787073;80;26215;-73
2021/05/08 04:17:46;;;;;;;7.80;3.50;;;;;;;8.27;100.00;100873.61;1787057;80;26239;-73
2021/05/08 04:20:16;;;;;;;4.37;3.17;;;;;;;8.20;100.00;100873.86;1787089;80;26203;-73
2021/05/08 04:22:46;;;;;;;4.67;3.20;;;;;;;8.14;100.00;100863.02;1787058;80;26230;-73
2021/05/08 04:25:16;;;;;;;6.33;3.27;;;;;;;8.20;100.00;100853.66;1787155;80;26304;-74
2021/05/08 04:27:45;;;;;;;5.30;3.50;;;;;;;8.19;100.00;100856.97;1787038;80;26759;-74
2021/05/08 04:30:18;;;;;;;7.20;3.57;;;;;;;8.24;100.00;100846.48;1787136;80;26259;-73
2021/05/08 04:32:48;;;;;;;6.97;3.97;;;;;;;8.17;100.00;100852.83;1787031;80;26288;-73
2021/05/08 04:35:18;;;;;;;7.07;4.10;;;;;;;8.17;100.00;100845.91;1787205;80;26340;-73
2021/05/08 04:37:47;;;;;;;7.53;3.60;;;;;;;8.20;100.00;100848.96;1786994;80;26238;-73
2021/05/08 04:40:17;;;;;;;6.63;4.47;;;;;;;8.19;100.00;100840.92;1787116;80;26693;-73
2021/05/08 04:42:47;;;;;;;8.13;3.87;;;;;;;8.32;100.00;100833.54;1787069;80;26230;-73
2021/05/08 04:45:17;;;;;;;7.30;4.33;;;;;;;8.24;100.00;100833.48;1787057;80;26242;-73
2021/05/08 04:47:47;;;;;;;7.00;4.10;;;;;;;8.37;100.00;100831.34;1787107;80;26277;-73
2021/05/08 04:50:17;;;;;;;10.67;4.77;;;;;;;8.32;100.00;100818.87;1787059;80;26305;-73
2021/05/08 04:52:47;;;;;;;6.57;4.67;;;;;;;8.25;100.00;100809.41;1787029;80;26285;-73
2021/05/08 04:55:17;;;;;;;10.17;4.57;;;;;;;8.18;100.00;100801.34;1787007;80;26238;-73
2021/05/08 04:57:47;;;;;;;9.23;4.73;;;;;;;8.27;100.00;100794.73;1786999;80;26751;-73
2021/05/08 05:00:19;;;;;;;6.73;4.80;;;;;;;8.42;100.00;100782.38;1787062;80;26211;-73
2021/05/08 05:02:49;;;;;;;8.43;5.43;;;;;;;8.43;100.00;100771.56;1786964;80;26266;-73
2021/05/08 05:05:20;;;;;;;7.97;4.80;;;;;;;8.52;100.00;100763.02;1787032;80;26654;-73
2021/05/08 05:07:49;;;;;;;7.60;4.50;;;;;;;8.51;100.00;100753.06;1787108;80;26238;-73
2021/05/08 05:10:19;;;;;;;9.50;5.73;;;;;;;8.56;100.00;100759.97;1787002;80;26223;-73
2021/05/08 05:12:49;;;;;;;8.63;5.23;;;;;;;8.54;100.00;100744.20;1786922;76;26286;-73
2021/05/08 05:15:21;;;;;;;9.50;5.87;;;;;;;8.59;100.00;100737.30;1787023;80;26222;-73
2021/05/08 05:17:50;;;;;;;8.83;6.50;;;;;;;8.60;100.00;100738.13;1787006;80;26764;-73
2021/05/08 05:20:20;;;;;;;10.53;6.10;;;;;;;8.71;100.00;100730.66;1787143;80;26218;-73
2021/05/08 05:22:51;;;;;;;10.67;6.47;;;;;;;8.74;100.00;100721.78;1787281;80;26227;-72
2021/05/08 05:25:21;;;;;;;10.43;6.83;;;;;;;8.77;100.00;100728.98;1787093;80;26728;-73
2021/05/08 05:27:51;;;;;;;8.03;6.10;;;;;;;8.65;100.00;100720.11;1787129;80;26353;-73
2021/05/08 05:30:22;;;;;;;11.20;6.70;;;;;;;8.82;100.00;100712.92;1787094;80;26230;-74
2021/05/08 05:32:52;;;;;;;11.23;7.60;;;;;;;8.73;100.00;100711.26;1787017;80;26626;-73
2021/05/08 05:35:22;;;;;;;9.70;6.37;;;;;;;8.79;100.00;100700.47;1787024;80;26646;-73
2021/05/08 05:37:59;;;;;;;13.73;7.07;;;;;;;8.76;100.00;100689.13;1787089;80;26312;-73
2021/05/08 05:40:29;;;;;;;11.10;7.60;;;;;;;8.87;100.00;100676.92;1787012;80;26230;-73
2021/05/08 05:42:59;;;;;;;9.83;7.50;;;;;;;8.95;100.00;100665.27;1787010;80;26716;-73
2021/05/08 05:45:29;;;;;;;11.13;7.43;;;;;;;9.09;100.00;100661.66;1786999;80;26317;-73
2021/05/08 05:48:01;;;;;;;12.90;7.80;;;;;;;9.03;100.00;100656.39;1787036;80;26324;-73
2021/05/08 05:50:32;;;;;;;14.20;8.33;;;;;;;9.07;100.00;100654.75;1787040;80;26225;-73
2021/05/08 05:53:02;;;;;;;13.87;9.57;;;;;;;9.22;100.00;100647.78;1787047;80;26701;-74
2021/05/08 05:55:32;;;;;;;13.93;9.40;;;;;;;9.29;100.00;100637.21;1787118;80;26234;-77
2021/05/08 05:58:03;;;;;;;14.70;9.93;;;;;;;9.31;100.00;100641.10;1787215;80;26790;-75
2021/05/08 06:00:32;;;;;;;14.70;9.87;;;;;;;9.36;100.00;100629.45;1787118;80;26730;-77
2021/05/08 06:03:02;;;;;;;15.00;10.40;;;;;;;9.46;100.00;100627.17;1787011;80;26768;-77
2021/05/08 06:05:33;;;;;;;16.00;10.63;;;;;;;9.51;100.00;100623.83;1787060;80;26686;-75
2021/05/08 06:08:03;;;;;;;14.43;10.37;;;;;;;9.52;100.00;100620.50;1787076;80;26215;-75
2021/05/08 06:10:33;;;;;;;14.37;11.50;;;;;;;9.53;100.00;100618.02;1787132;80;26230;-76
2021/05/08 06:13:04;;;;;;;13.53;11.23;;;;;;;9.58;100.00;100623.54;1786913;78;26340;-75
2021/05/08 06:15:35;;;;;;;14.30;11.13;;;;;;;9.58;100.00;100604.13;1787045;80;26246;-76
2021/05/08 06:18:05;;;;;;;13.73;10.63;;;;;;;9.69;100.00;100603.51;1786991;80;26285;-76
2021/05/08 06:20:35;;;;;;;18.57;11.67;;;;;;;9.68;100.00;100602.67;1787005;80;26225;-75
2021/05/08 06:23:05;;;;;;;12.73;10.20;;;;;;;9.75;100.00;100603.21;1787084;80;26293;-76
2021/05/08 06:25:35;;;;;;;13.70;11.50;;;;;;;9.83;100.00;100597.06;1787070;80;26226;-76
2021/05/08 06:28:05;;;;;;;13.23;11.27;;;;;;;9.86;100.00;100592.31;1787077;80;26226;-74
2021/05/08 06:30:35;;;;;;;15.43;10.40;;;;;;;9.89;100.00;100592.29;1787052;80;26223;-75
2021/05/08 06:33:05;;;;;;;13.20;11.90;;;;;;;9.95;100.00;100586.99;1787064;80;26222;-74
2021/05/08 06:35:35;;;;;;;13.57;12.10;;;;;;;10.01;100.00;100572.78;1787007;80;26230;-74
2021/05/08 06:38:06;;;;;;;13.30;11.70;;;;;;;10.05;100.00;100573.06;1787072;80;26235;-74
2021/05/08 06:40:36;;;;;;;13.10;11.73;;;;;;;10.06;100.00;100571.36;1787031;80;26234;-75
2021/05/08 06:43:05;;;;;;;12.53;11.23;;;;;;;10.08;100.00;100563.31;1786991;80;26682;-75
2021/05/08 06:45:36;;;;;;;14.73;11.10;;;;;;;10.12;100.00;100570.77;1787063;80;26242;-75
2021/05/08 06:48:08;;;;;;;13.27;11.70;;;;;;;10.15;100.00;100561.89;1787016;80;26645;-75
2021/05/08 06:50:38;;;;;;;14.07;11.50;;;;;;;10.19;100.00;100560.75;1787148;80;26266;-74
2021/05/08 06:53:08;;;;;;;14.63;11.50;;;;;;;10.20;100.00;100545.77;1787058;80;26542;-74
2021/05/08 06:55:37;;;;;;;13.73;11.40;;;;;;;10.21;100.00;100540.48;1787047;80;26441;-74
2021/05/08 06:58:08;;;;;;;12.07;10.87;;;;;;;10.23;100.00;100532.13;1787053;80;26289;-75
2021/05/08 07:00:38;;;;;;;14.43;12.80;;;;;;;10.31;100.00;100520.98;1787058;80;26265;-75
2021/05/08 07:03:08;;;;;;;12.53;11.23;;;;;;;10.28;100.00;100508.49;1787075;80;26293;-76
2021/05/08 07:05:37;;;;;;;13.37;11.90;;;;;;;10.32;100.00;100501.79;1787161;80;26677;-75
2021/05/08 07:08:08;;;;;;;12.57;11.13;;;;;;;10.33;100.00;100502.89;1787186;80;26755;-74
2021/05/08 07:10:46;;;;;;;13.63;11.73;;;;;;;10.35;100.00;100499.84;1787108;80;26262;-76
2021/05/08 07:13:17;;;;;;;12.63;11.30;;;;;;;10.45;100.00;100486.67;1787129;77;26222;-75
2021/05/08 07:15:47;;;;;;;13.07;11.47;;;;;;;10.49;100.00;100464.69;1787196;80;26271;-73
2021/05/08 07:18:17;;;;;;;10.60;9.60;;;;;;;10.55;100.00;100473.25;1787134;80;26321;-75
2021/05/08 07:20:46;;;;;;;11.27;9.27;;;;;;;10.62;100.00;100456.22;1786977;80;26654;-73
2021/05/08 07:23:16;;;;;;;10.83;8.83;;;;;;;10.64;100.00;100453.43;1786913;80;26756;-73
2021/05/08 07:25:46;;;;;;;12.30;8.90;;;;;;;10.71;100.00;100448.89;1787141;80;26289;-74
2021/05/08 07:28:19;;;;;;;9.77;8.80;;;;;;;10.77;100.00;100447.72;1786984;80;26316;-74
2021/05/08 07:30:51;;;;;;;9.53;7.93;;;;;;;10.75;100.00;100440.23;1786978;80;26292;-76
2021/05/08 07:33:22;;;;;;;9.80;8.20;;;;;;;10.84;100.00;100428.73;1787030;80;26223;-74
2021/05/08 07:35:53;;;;;;;8.73;7.50;;;;;;;10.90;100.00;100431.16;1787002;80;26736;-74
2021/05/08 07:38:23;;;;;;;9.27;8.40;;;;;;;10.92;100.00;100424.73;1786964;80;26324;-77
2021/05/08 07:40:53;;;;;;;9.67;8.57;;;;;;;11.01;100.00;100416.55;1787031;80;26223;-74
2021/05/08 07:43:24;;;;;;;10.87;9.30;;;;;;;11.04;100.00;100407.61;1786969;80;26738;-75
2021/05/08 07:45:54;;;;;;;11.00;9.90;;;;;;;11.08;100.00;100400.92;1787055;80;26231;-74
2021/05/08 07:48:24;;;;;;;10.93;9.83;;;;;;;11.16;100.00;100412.75;1787124;80;26681;-75
2021/05/08 07:50:54;;;;;;;10.73;8.53;;;;;;;11.16;100.00;100404.41;1787061;80;26748;-75
2021/05/08 07:53:24;;;;;;;10.43;8.53;;;;;;;11.21;100.00;100402.36;1786956;80;26684;-75
2021/05/08 07:55:54;;;;;;;9.67;7.60;;;;;;;11.25;100.00;100399.24;1786918;80;26234;-74
2021/05/08 07:58:24;;;;;;;5.93;5.33;;;;;;;11.27;100.00;100392.00;1786883;80;26308;-74
2021/05/08 08:00:54;;;;;;;5.97;5.10;;;;;;;11.30;100.00;100380.27;1787034;80;26227;-74
2021/05/08 08:03:24;;;;;;;5.33;4.57;;;;;;;11.37;100.00;100382.13;1786973;80;26760;-75
2021/05/08 08:05:54;;;;;;;4.87;4.37;;;;;;;11.40;100.00;100371.22;1786977;80;26751;-74
2021/05/08 08:08:24;;;;;;;5.40;3.70;;;;;;;11.45;100.00;100366.70;1786978;80;26302;-74
2021/05/08 08:10:54;;;;;;;4.87;4.20;;;;;;;11.50;100.00;100363.28;1787001;80;26226;-74
2021/05/08 08:13:24;;;;;;;4.83;4.00;;;;;;;11.54;100.00;100360.72;1787218;80;26297;-75
2021/05/08 08:15:54;;;;;;;3.70;3.27;;;;;;;11.59;100.00;100353.13;1799469;76;26273;-75
2021/05/08 08:18:26;;;;;;;2.90;2.67;;;;;;;11.60;100.00;100354.75;1803079;79;26673;-75
2021/05/08 08:20:56;;;;;;;2.97;2.77;;;;;;;11.68;100.00;100351.86;1803119;79;26670;-74
2021/05/08 08:23:26;;;;;;;3.30;2.30;;;;;;;11.74;100.00;100349.27;1803369;79;26304;-74
2021/05/08 08:25:56;;;;;;;3.33;2.00;;;;;;;11.82;100.00;100345.22;1803156;79;26689;-75
2021/05/08 08:28:26;;;;;;;1.77;1.67;;;;;;;11.91;100.00;100340.33;1803169;79;26308;-75
2021/05/08 08:30:56;;;;;;;4.37;1.73;;;;;;;11.91;100.00;100345.90;1803163;79;26230;-75
2021/05/08 08:33:26;;;;;;;3.87;2.97;;;;;;;12.00;100.00;100341.28;1803277;79;26234;-75
2021/05/08 08:35:56;;;;;;;1.47;1.10;;;;;;;12.01;100.00;100346.55;1803048;79;26669;-75
2021/05/08 08:38:26;;;;;;;1.73;1.17;;;;;;;12.09;100.00;100347.23;1803042;79;26755;-74
2021/05/08 08:40:56;;;;;;;1.00;0.90;;;;;;;12.19;100.00;100340.64;1803058;79;26230;-74
2021/05/08 08:43:26;;;;;;;1.50;1.10;;;;;;;12.21;100.00;100330.84;1803084;79;26238;-74
2021/05/08 08:45:57;;;;;;;1.63;0.90;;;;;;;12.27;100.00;100330.18;1803061;79;26307;-75
2021/05/08 08:48:27;;;;;;;1.33;0.90;;;;;;;12.32;100.00;100330.08;1803197;79;26233;-75
2021/05/08 08:50:57;;;;;;;2.80;1.10;;;;;;;12.37;100.00;100322.98;1803297;79;26300;-75
2021/05/08 08:53:26;;;;;;;0.90;0.90;;;;;;;12.43;100.00;100318.98;1803304;79;26323;-75
2021/05/08 08:55:58;;;;;;;1.63;1.20;;;;;;;12.45;100.00;100313.11;1803181;79;26311;-75
2021/05/08 08:58:32;;;;;;;1.20;1.10;;;;;;;12.53;100.00;100309.02;1803119;79;26299;-74
2021/05/08 09:01:03;;;;;;;2.70;1.07;;;;;;;12.59;100.00;100303.58;1803251;79;26277;-75
2021/05/08 09:03:33;;;;;;;1.53;1.37;;;;;;;12.68;100.00;100304.50;1803146;79;26344;-74
2021/05/08 09:06:03;;;;;;;2.20;1.43;;;;;;;12.75;100.00;100295.70;1803347;79;26315;-74
2021/05/08 09:08:33;;;;;;;2.53;1.80;;;;;;;12.89;100.00;100293.70;1803134;79;26234;-75
2021/05/08 09:11:21;;;;;;;3.17;2.27;;;;;;;12.96;100.00;100300.26;1803304;79;26272;-75
2021/05/08 09:13:55;;;;;;;5.73;2.47;;;;;;;13.02;100.00;100295.63;1803170;79;26655;-75
2021/05/08 09:16:25;;;;;;;5.03;2.87;;;;;;;13.01;100.00;100298.16;1798590;76;26459;-75
2021/05/08 09:18:55;;;;;;;7.37;3.80;;;;;;;13.09;100.00;100292.42;1803148;79;26218;-75
2021/05/08 09:21:29;;;;;;;8.47;3.70;;;;;;;13.19;100.00;100295.80;1803110;79;26308;-75
2021/05/08 09:24:02;;;;;;;7.13;3.53;;;;;;;13.27;100.00;100296.17;1803176;79;26606;-75
2021/05/08 09:26:39;;;;;;;8.43;4.00;;;;;;;13.28;100.00;100290.30;1803160;79;26343;-75
2021/05/08 09:29:20;;;;;;;8.97;3.90;;;;;;;13.29;100.00;100280.80;1803174;79;26304;-75
2021/05/08 09:31:54;;;;;;;10.73;4.90;;;;;;;13.41;100.00;100278.24;1803234;79;26296;-75
2021/05/08 09:34:24;;;;;;;7.03;4.77;;;;;;;13.45;100.00;100276.47;1803176;79;26234;-75
2021/05/08 09:36:55;;;;;;;9.57;4.87;;;;;;;13.52;100.00;100277.42;1803256;79;26230;-75
2021/05/08 09:39:29;;;;;;;10.83;5.13;;;;;;;13.51;100.00;100277.99;1803145;79;26234;-75
2021/05/08 09:42:00;;;;;;;11.37;5.40;;;;;;;13.58;100.00;100283.94;1803221;79;26304;-75
2021/05/08 09:44:30;;;;;;;8.20;4.70;;;;;;;13.54;100.00;100275.95;1803174;79;26237;-75
2021/05/08 09:47:02;;;;;;;15.03;5.70;;;;;;;13.50;100.00;100290.29;1803184;79;26315;-75
2021/05/08 09:49:31;;;;;;;12.03;5.87;;;;;;;13.58;100.00;100278.92;1803057;79;26797;-75
2021/05/08 09:52:02;;;;;;;12.80;5.60;;;;;;;13.62;100.00;100291.92;1803094;79;26338;-76
2021/05/08 09:54:32;;;;;;;13.37;5.97;;;;;;;13.59;100.00;100296.75;1803176;79;26354;-76
2021/05/08 09:57:01;;;;;;;10.17;6.13;;;;;;;13.57;100.00;100298.20;1803089;79;26280;-76
2021/05/08 09:59:33;;;;;;;14.60;6.53;;;;;;;13.59;100.00;100289.78;1803200;79;26736;-76
2021/05/08 10:02:14;;;;;;;16.47;6.70;;;;;;;13.68;100.00;100289.83;1803155;79;26324;-76
2021/05/08 10:04:47;;;;;;;14.23;6.70;;;;;;;13.66;100.00;100301.30;1803275;79;26314;-75
2021/05/08 10:07:20;;;;;;;13.77;7.00;;;;;;;13.68;100.00;100289.83;1803274;79;26229;-74
2021/05/08 10:09:53;;;;;;;15.60;8.07;;;;;;;13.66;100.00;100278.15;1803155;79;26692;-75
2021/05/08 10:12:24;;;;;;;19.87;7.73;;;;;;;13.80;100.00;100289.23;1803163;79;26319;-75
2021/05/08 10:14:56;;;;;;;14.73;7.57;;;;;;;13.93;100.00;100279.94;1803123;79;26226;-75
2021/05/08 10:17:27;;;;;;;21.93;8.50;;;;;;;13.93;100.00;100278.55;1803263;77;26282;-76
2021/05/08 10:20:00;;;;;;;18.80;8.70;;;;;;;13.93;100.00;100280.77;1803130;79;26246;-75
2021/05/08 10:22:34;;;;;;;19.00;8.17;;;;;;;13.89;100.00;100279.76;1803349;79;26670;-75
2021/05/08 10:25:06;;;;;;;18.40;8.47;;;;;;;13.90;100.00;100256.86;1803255;79;26304;-76
2021/05/08 10:27:36;;;;;;;15.80;7.30;;;;;;;13.92;100.00;100273.53;1803206;79;26292;-75
2021/05/08 10:30:10;;;;;;;14.63;7.00;;;;;;;13.95;100.00;100272.88;1803075;79;26295;-76
2021/05/08 10:32:42;;;;;;;18.07;7.30;;;;;;;13.89;100.00;100276.97;1763265;81;26244;-75
2021/05/08 10:35:13;;;;;;;14.47;7.13;;;;;;;13.99;100.00;100265.50;1762668;81;26260;-76
2021/05/08 10:38:31;;;;;;;14.67;6.80;;;;;;;13.98;100.00;100259.69;1767456;81;26196;-75
2021/05/08 10:41:02;;;;;;;16.13;6.90;;;;;;;14.04;100.00;100272.34;1710876;83;26342;-75
2021/05/08 10:43:49;;;;;;;17.50;6.53;;;;;;;14.07;100.00;100273.12;1681554;85;26289;-75
2021/05/08 10:46:20;;;;;;;14.63;6.57;;;;;;;14.10;100.00;100266.88;1710653;84;26372;-75
2021/05/08 10:49:19;;;;;;;12.73;6.27;;;;;;;14.14;100.00;100262.29;1710873;84;26362;-75
2021/05/08 10:51:59;;;;;;;15.53;7.10;;;;;;;14.21;100.00;100250.63;1708976;84;26741;-75
2021/05/08 10:54:55;;;;;;;18.27;6.70;;;;;;;14.24;100.00;100252.80;1681523;85;26731;-75
2021/05/08 10:57:27;;;;;;;17.47;6.47;;;;;;;14.23;100.00;100257.30;1710803;84;26777;-75
2021/05/08 11:00:24;;;;;;;17.63;7.37;;;;;;;14.26;100.00;100263.06;1681477;85;26344;-75
2021/05/08 11:03:05;;;;;;;18.80;7.30;;;;;;;14.25;100.00;100266.98;1710121;84;26773;-76
2021/05/08 11:05:39;;;;;;;16.30;7.10;;;;;;;14.24;100.00;100275.14;1681511;85;26437;-76
2021/05/08 11:08:46;;;;;;;15.47;6.67;;;;;;;14.29;100.00;100271.38;1711223;84;26275;-76
2021/05/08 11:11:19;;;;;;;19.53;7.80;;;;;;;14.35;100.00;100254.70;1681534;85;26449;-75
2021/05/08 11:14:01;;;;;;;14.40;6.93;;;;;;;14.32;100.00;100263.17;1710932;84;26364;-75
2021/05/08 11:16:32;;;;;;;19.37;7.80;;;;;;;14.35;100.00;100258.35;1767822;80;26707;-75
2021/05/08 11:19:02;;;;;;;17.20;8.53;;;;;;;14.38;100.00;100256.30;1804101;79;26300;-76
2021/05/08 11:21:40;;;;;;;17.43;8.07;;;;;;;14.41;100.00;100262.66;1803107;79;26743;-76
2021/05/08 11:24:12;;;;;;;19.60;8.17;;;;;;;14.47;100.00;100268.33;1802999;79;26704;-75
2021/05/08 11:26:47;;;;;;;18.10;7.53;;;;;;;14.49;100.00;100262.42;1803201;79;26339;-76
2021/05/08 11:29:19;;;;;;;14.90;8.27;;;;;;;14.46;100.00;100257.48;1803144;79;26381;-75
2021/05/08 11:31:50;;;;;;;16.13;7.70;;;;;;;14.48;100.00;100264.38;1803141;79;26238;-75
2021/05/08 11:34:23;;;;;;;16.20;8.37;;;;;;;14.49;100.00;100265.21;1803204;79;26327;-75
2021/05/08 11:36:56;;;;;;;17.10;7.50;;;;;;;14.55;100.00;100260.53;1803196;79;26374;-75